sensor_id;sensor_type;location;lat;lon;timestamp;P1;durP1;ratioP1;P2;durP2;ratioP2
35518;SDS011;21627;48.216;16.482;2023-04-30T00:01:12;13.25;;;9.23;;
35518;SDS011;21627;48.216;16.482;2023-04-30T00:03:39;22.65;;;8.68;;
35518;SDS011;21627;48.216;16.482;2023-04-30T00:06:07;12.05;;;9.18;;
35518;SDS011;21627;48.216;16.482;2023-04-30T00:08:34;12.35;;;8.70;;
35518;SDS011;21627;48.216;16.482;2023-04-30T00:11:01;13.50;;;8.70;;
35518;SDS011;21627;48.216;16.482;2023-04-30T00:13:28;11.43;;;8.48;;
35518;SDS011;21627;48.216;16.482;2023-04-30T00:15:55;10.75;;;8.02;;
35518;SDS011;21627;48.216;16.482;2023-04-30T00:18:22;12.32;;;8.85;;
35518;SDS011;21627;48.216;16.482;2023-04-30T00:20:49;12.98;;;8.95;;
35518;SDS011;21627;48.216;16.482;2023-04-30T00:23:18;12.15;;;8.50;;
35518;SDS011;21627;48.216;16.482;2023-04-30T00:25:45;12.65;;;8.25;;
35518;SDS011;21627;48.216;16.482;2023-04-30T00:28:13;12.15;;;8.52;;
35518;SDS011;21627;48.216;16.482;2023-04-30T00:30:40;12.00;;;8.48;;
35518;SDS011;21627;48.216;16.482;2023-04-30T00:33:07;14.63;;;8.10;;
35518;SDS011;21627;48.216;16.482;2023-04-30T00:35:34;14.68;;;9.63;;
35518;SDS011;21627;48.216;16.482;2023-04-30T00:38:01;13.07;;;8.57;;
35518;SDS011;21627;48.216;16.482;2023-04-30T00:40:28;14.85;;;9.70;;
35518;SDS011;21627;48.216;16.482;2023-04-30T00:42:55;16.10;;;9.75;;
35518;SDS011;21627;48.216;16.482;2023-04-30T00:45:23;15.52;;;9.88;;
35518;SDS011;21627;48.216;16.482;2023-04-30T00:47:50;19.40;;;10.70;;
35518;SDS011;21627;48.216;16.482;2023-04-30T00:50:17;16.58;;;10.02;;
35518;SDS011;21627;48.216;16.482;2023-04-30T00:52:45;17.42;;;10.25;;
35518;SDS011;21627;48.216;16.482;2023-04-30T00:55:12;16.80;;;10.50;;
35518;SDS011;21627;48.216;16.482;2023-04-30T00:57:39;15.07;;;10.00;;
35518;SDS011;21627;48.216;16.482;2023-04-30T01:00:07;17.25;;;10.85;;
35518;SDS011;21627;48.216;16.482;2023-04-30T01:02:39;16.10;;;10.95;;
35518;SDS011;21627;48.216;16.482;2023-04-30T01:05:07;17.90;;;11.65;;
35518;SDS011;21627;48.216;16.482;2023-04-30T01:07:35;21.05;;;11.38;;
35518;SDS011;21627;48.216;16.482;2023-04-30T01:10:04;18.15;;;11.52;;
35518;SDS011;21627;48.216;16.482;2023-04-30T01:12:49;20.77;;;12.10;;
35518;SDS011;21627;48.216;16.482;2023-04-30T01:18:22;18.70;;;11.77;;
35518;SDS011;21627;48.216;16.482;2023-04-30T01:21:03;19.52;;;12.63;;
35518;SDS011;21627;48.216;16.482;2023-04-30T01:26:14;21.05;;;13.40;;
35518;SDS011;21627;48.216;16.482;2023-04-30T01:29:03;28.08;;;13.50;;
35518;SDS011;21627;48.216;16.482;2023-04-30T01:31:32;19.17;;;12.05;;
35518;SDS011;21627;48.216;16.482;2023-04-30T01:33:59;19.05;;;12.73;;
35518;SDS011;21627;48.216;16.482;2023-04-30T01:39:44;20.90;;;12.15;;
35518;SDS011;21627;48.216;16.482;2023-04-30T01:48:42;23.30;;;13.05;;
35518;SDS011;21627;48.216;16.482;2023-04-30T01:51:43;18.67;;;11.80;;
35518;SDS011;21627;48.216;16.482;2023-04-30T01:54:23;21.33;;;12.60;;
35518;SDS011;21627;48.216;16.482;2023-04-30T01:57:03;23.92;;;12.02;;
35518;SDS011;21627;48.216;16.482;2023-04-30T01:59:34;22.13;;;13.20;;
35518;SDS011;21627;48.216;16.482;2023-04-30T02:02:04;22.45;;;13.68;;
35518;SDS011;21627;48.216;16.482;2023-04-30T02:04:32;24.27;;;13.40;;
35518;SDS011;21627;48.216;16.482;2023-04-30T02:06:59;20.90;;;14.02;;
35518;SDS011;21627;48.216;16.482;2023-04-30T02:09:26;24.42;;;13.10;;
35518;SDS011;21627;48.216;16.482;2023-04-30T02:11:54;24.15;;;14.02;;
35518;SDS011;21627;48.216;16.482;2023-04-30T02:14:23;23.35;;;14.60;;
35518;SDS011;21627;48.216;16.482;2023-04-30T02:16:50;22.50;;;14.57;;
35518;SDS011;21627;48.216;16.482;2023-04-30T02:19:17;20.23;;;13.88;;
35518;SDS011;21627;48.216;16.482;2023-04-30T02:21:44;26.30;;;14.98;;
35518;SDS011;21627;48.216;16.482;2023-04-30T02:24:11;24.08;;;15.10;;
35518;SDS011;21627;48.216;16.482;2023-04-30T02:26:39;22.30;;;14.70;;
35518;SDS011;21627;48.216;16.482;2023-04-30T02:29:06;26.73;;;15.68;;
35518;SDS011;21627;48.216;16.482;2023-04-30T02:31:33;26.08;;;16.75;;
35518;SDS011;21627;48.216;16.482;2023-04-30T02:34:00;25.55;;;16.23;;
35518;SDS011;21627;48.216;16.482;2023-04-30T02:36:27;31.63;;;16.08;;
35518;SDS011;21627;48.216;16.482;2023-04-30T02:38:54;24.50;;;16.10;;
35518;SDS011;21627;48.216;16.482;2023-04-30T02:41:22;22.00;;;15.43;;
35518;SDS011;21627;48.216;16.482;2023-04-30T02:43:49;26.92;;;15.57;;
35518;SDS011;21627;48.216;16.482;2023-04-30T02:46:16;29.80;;;17.17;;
35518;SDS011;21627;48.216;16.482;2023-04-30T02:48:44;25.15;;;16.60;;
35518;SDS011;21627;48.216;16.482;2023-04-30T02:51:11;23.27;;;16.40;;
35518;SDS011;21627;48.216;16.482;2023-04-30T02:53:38;27.60;;;16.60;;
35518;SDS011;21627;48.216;16.482;2023-04-30T02:56:06;29.42;;;17.45;;
35518;SDS011;21627;48.216;16.482;2023-04-30T02:58:33;30.73;;;16.73;;
35518;SDS011;21627;48.216;16.482;2023-04-30T03:01:01;26.13;;;17.42;;
35518;SDS011;21627;48.216;16.482;2023-04-30T03:03:28;25.73;;;17.00;;
35518;SDS011;21627;48.216;16.482;2023-04-30T03:05:56;29.02;;;17.48;;
35518;SDS011;21627;48.216;16.482;2023-04-30T03:08:25;30.10;;;18.48;;
35518;SDS011;21627;48.216;16.482;2023-04-30T03:10:52;31.15;;;18.08;;
35518;SDS011;21627;48.216;16.482;2023-04-30T03:13:19;28.90;;;18.20;;
35518;SDS011;21627;48.216;16.482;2023-04-30T03:15:47;29.73;;;17.63;;
35518;SDS011;21627;48.216;16.482;2023-04-30T03:18:14;26.25;;;17.48;;
35518;SDS011;21627;48.216;16.482;2023-04-30T03:20:41;27.13;;;17.88;;
35518;SDS011;21627;48.216;16.482;2023-04-30T03:23:08;32.10;;;18.30;;
35518;SDS011;21627;48.216;16.482;2023-04-30T03:25:35;29.38;;;18.40;;
35518;SDS011;21627;48.216;16.482;2023-04-30T03:28:02;27.42;;;18.38;;
35518;SDS011;21627;48.216;16.482;2023-04-30T03:30:30;27.70;;;18.98;;
35518;SDS011;21627;48.216;16.482;2023-04-30T03:32:57;33.33;;;18.95;;
35518;SDS011;21627;48.216;16.482;2023-04-30T03:35:24;26.77;;;18.33;;
35518;SDS011;21627;48.216;16.482;2023-04-30T03:37:51;26.05;;;17.88;;
35518;SDS011;21627;48.216;16.482;2023-04-30T03:40:18;29.00;;;19.65;;
35518;SDS011;21627;48.216;16.482;2023-04-30T03:42:45;27.58;;;18.50;;
35518;SDS011;21627;48.216;16.482;2023-04-30T03:45:16;30.58;;;17.98;;
35518;SDS011;21627;48.216;16.482;2023-04-30T03:47:43;27.77;;;18.88;;
35518;SDS011;21627;48.216;16.482;2023-04-30T03:50:10;27.77;;;18.60;;
35518;SDS011;21627;48.216;16.482;2023-04-30T03:52:38;30.42;;;19.10;;
35518;SDS011;21627;48.216;16.482;2023-04-30T03:55:05;30.40;;;19.25;;
35518;SDS011;21627;48.216;16.482;2023-04-30T03:57:32;34.85;;;19.08;;
35518;SDS011;21627;48.216;16.482;2023-04-30T03:59:59;26.08;;;17.63;;
35518;SDS011;21627;48.216;16.482;2023-04-30T04:02:27;31.20;;;17.92;;
35518;SDS011;21627;48.216;16.482;2023-04-30T04:04:57;26.98;;;18.08;;
35518;SDS011;21627;48.216;16.482;2023-04-30T04:07:24;30.58;;;20.30;;
35518;SDS011;21627;48.216;16.482;2023-04-30T04:09:51;29.38;;;18.73;;
35518;SDS011;21627;48.216;16.482;2023-04-30T04:12:18;29.50;;;18.30;;
35518;SDS011;21627;48.216;16.482;2023-04-30T04:14:45;34.83;;;17.52;;
35518;SDS011;21627;48.216;16.482;2023-04-30T04:17:13;27.58;;;18.20;;
35518;SDS011;21627;48.216;16.482;2023-04-30T04:19:40;26.27;;;17.10;;
35518;SDS011;21627;48.216;16.482;2023-04-30T04:22:07;28.63;;;17.33;;
35518;SDS011;21627;48.216;16.482;2023-04-30T04:24:34;25.63;;;18.25;;
35518;SDS011;21627;48.216;16.482;2023-04-30T04:27:01;28.83;;;17.90;;
35518;SDS011;21627;48.216;16.482;2023-04-30T04:29:29;27.60;;;17.63;;
35518;SDS011;21627;48.216;16.482;2023-04-30T04:31:57;25.27;;;18.17;;
35518;SDS011;21627;48.216;16.482;2023-04-30T04:34:28;29.45;;;17.80;;
35518;SDS011;21627;48.216;16.482;2023-04-30T04:36:55;25.50;;;17.33;;
35518;SDS011;21627;48.216;16.482;2023-04-30T04:39:23;25.13;;;16.92;;
35518;SDS011;21627;48.216;16.482;2023-04-30T04:41:50;24.50;;;17.58;;
35518;SDS011;21627;48.216;16.482;2023-04-30T04:44:18;26.67;;;18.00;;
35518;SDS011;21627;48.216;16.482;2023-04-30T04:46:45;26.98;;;16.52;;
35518;SDS011;21627;48.216;16.482;2023-04-30T04:49:15;27.92;;;16.15;;
35518;SDS011;21627;48.216;16.482;2023-04-30T04:51:42;26.33;;;16.60;;
35518;SDS011;21627;48.216;16.482;2023-04-30T04:54:09;27.05;;;16.80;;
35518;SDS011;21627;48.216;16.482;2023-04-30T04:56:39;22.80;;;15.45;;
35518;SDS011;21627;48.216;16.482;2023-04-30T04:59:07;23.95;;;16.13;;
35518;SDS011;21627;48.216;16.482;2023-04-30T05:01:34;22.65;;;16.55;;
35518;SDS011;21627;48.216;16.482;2023-04-30T05:04:01;25.85;;;16.58;;
35518;SDS011;21627;48.216;16.482;2023-04-30T05:06:29;25.05;;;16.50;;
35518;SDS011;21627;48.216;16.482;2023-04-30T05:08:57;23.85;;;16.08;;
35518;SDS011;21627;48.216;16.482;2023-04-30T05:11:27;24.95;;;15.60;;
35518;SDS011;21627;48.216;16.482;2023-04-30T05:13:54;22.02;;;15.88;;
35518;SDS011;21627;48.216;16.482;2023-04-30T05:16:23;22.45;;;15.35;;
35518;SDS011;21627;48.216;16.482;2023-04-30T05:18:51;25.13;;;16.15;;
35518;SDS011;21627;48.216;16.482;2023-04-30T05:21:18;21.63;;;15.35;;
35518;SDS011;21627;48.216;16.482;2023-04-30T05:23:45;22.92;;;15.00;;
35518;SDS011;21627;48.216;16.482;2023-04-30T05:26:13;21.98;;;15.55;;
35518;SDS011;21627;48.216;16.482;2023-04-30T05:28:41;22.77;;;15.38;;
35518;SDS011;21627;48.216;16.482;2023-04-30T05:31:08;26.55;;;16.13;;
35518;SDS011;21627;48.216;16.482;2023-04-30T05:33:35;28.52;;;15.68;;
35518;SDS011;21627;48.216;16.482;2023-04-30T05:36:02;22.70;;;14.10;;
35518;SDS011;21627;48.216;16.482;2023-04-30T05:38:30;19.52;;;13.95;;
35518;SDS011;21627;48.216;16.482;2023-04-30T05:40:57;21.55;;;14.50;;
35518;SDS011;21627;48.216;16.482;2023-04-30T05:43:25;22.00;;;15.27;;
35518;SDS011;21627;48.216;16.482;2023-04-30T05:45:52;22.60;;;15.18;;
35518;SDS011;21627;48.216;16.482;2023-04-30T05:48:19;22.42;;;15.23;;
35518;SDS011;21627;48.216;16.482;2023-04-30T05:50:47;21.13;;;14.63;;
35518;SDS011;21627;48.216;16.482;2023-04-30T05:53:14;23.95;;;14.57;;
35518;SDS011;21627;48.216;16.482;2023-04-30T05:55:41;22.48;;;14.00;;
35518;SDS011;21627;48.216;16.482;2023-04-30T05:58:08;20.80;;;14.23;;
35518;SDS011;21627;48.216;16.482;2023-04-30T06:00:35;22.77;;;15.38;;
35518;SDS011;21627;48.216;16.482;2023-04-30T06:03:03;20.63;;;14.73;;
35518;SDS011;21627;48.216;16.482;2023-04-30T06:05:30;19.08;;;14.68;;
35518;SDS011;21627;48.216;16.482;2023-04-30T06:07:57;22.63;;;15.35;;
35518;SDS011;21627;48.216;16.482;2023-04-30T06:10:24;23.85;;;13.80;;
35518;SDS011;21627;48.216;16.482;2023-04-30T06:12:52;20.60;;;13.18;;
35518;SDS011;21627;48.216;16.482;2023-04-30T06:15:19;19.30;;;14.25;;
35518;SDS011;21627;48.216;16.482;2023-04-30T06:17:47;19.30;;;13.93;;
35518;SDS011;21627;48.216;16.482;2023-04-30T06:20:14;21.85;;;13.95;;
35518;SDS011;21627;48.216;16.482;2023-04-30T06:22:41;17.25;;;13.35;;
35518;SDS011;21627;48.216;16.482;2023-04-30T06:25:08;20.13;;;13.95;;
35518;SDS011;21627;48.216;16.482;2023-04-30T06:27:35;21.02;;;12.80;;
35518;SDS011;21627;48.216;16.482;2023-04-30T06:30:03;21.48;;;14.52;;
35518;SDS011;21627;48.216;16.482;2023-04-30T06:32:31;18.08;;;12.68;;
35518;SDS011;21627;48.216;16.482;2023-04-30T06:34:58;22.60;;;12.57;;
35518;SDS011;21627;48.216;16.482;2023-04-30T06:37:26;19.80;;;12.75;;
35518;SDS011;21627;48.216;16.482;2023-04-30T06:39:53;16.77;;;12.60;;
35518;SDS011;21627;48.216;16.482;2023-04-30T06:42:21;20.20;;;13.43;;
35518;SDS011;21627;48.216;16.482;2023-04-30T06:44:48;22.20;;;12.90;;
35518;SDS011;21627;48.216;16.482;2023-04-30T06:47:15;18.00;;;11.35;;
35518;SDS011;21627;48.216;16.482;2023-04-30T06:49:42;18.95;;;11.98;;
35518;SDS011;21627;48.216;16.482;2023-04-30T06:52:09;17.05;;;12.70;;
35518;SDS011;21627;48.216;16.482;2023-04-30T06:54:36;17.63;;;11.82;;
35518;SDS011;21627;48.216;16.482;2023-04-30T06:57:03;24.00;;;11.23;;
35518;SDS011;21627;48.216;16.482;2023-04-30T06:59:31;13.75;;;10.90;;
35518;SDS011;21627;48.216;16.482;2023-04-30T07:01:58;20.80;;;11.18;;
35518;SDS011;21627;48.216;16.482;2023-04-30T07:04:25;17.58;;;10.98;;
35518;SDS011;21627;48.216;16.482;2023-04-30T07:06:53;15.02;;;9.88;;
35518;SDS011;21627;48.216;16.482;2023-04-30T07:09:20;17.98;;;10.27;;
35518;SDS011;21627;48.216;16.482;2023-04-30T07:11:47;12.95;;;9.32;;
35518;SDS011;21627;48.216;16.482;2023-04-30T07:14:14;16.35;;;9.63;;
35518;SDS011;21627;48.216;16.482;2023-04-30T07:16:41;18.77;;;10.15;;
35518;SDS011;21627;48.216;16.482;2023-04-30T07:19:09;13.15;;;8.65;;
35518;SDS011;21627;48.216;16.482;2023-04-30T07:21:36;12.93;;;8.27;;
35518;SDS011;21627;48.216;16.482;2023-04-30T07:24:03;14.23;;;9.45;;
35518;SDS011;21627;48.216;16.482;2023-04-30T07:26:31;9.32;;;7.13;;
35518;SDS011;21627;48.216;16.482;2023-04-30T07:28:58;10.38;;;7.40;;
35518;SDS011;21627;48.216;16.482;2023-04-30T07:31:25;9.52;;;6.80;;
35518;SDS011;21627;48.216;16.482;2023-04-30T07:33:52;14.07;;;7.30;;
35518;SDS011;21627;48.216;16.482;2023-04-30T07:36:21;9.27;;;7.20;;
35518;SDS011;21627;48.216;16.482;2023-04-30T07:38:48;14.85;;;6.85;;
35518;SDS011;21627;48.216;16.482;2023-04-30T07:41:15;10.80;;;6.72;;
35518;SDS011;21627;48.216;16.482;2023-04-30T07:43:42;9.20;;;6.68;;
35518;SDS011;21627;48.216;16.482;2023-04-30T07:46:09;11.40;;;6.63;;
35518;SDS011;21627;48.216;16.482;2023-04-30T07:48:37;15.15;;;7.15;;
35518;SDS011;21627;48.216;16.482;2023-04-30T07:51:04;11.88;;;6.82;;
35518;SDS011;21627;48.216;16.482;2023-04-30T07:53:31;10.80;;;6.95;;
35518;SDS011;21627;48.216;16.482;2023-04-30T07:55:58;12.23;;;7.40;;
35518;SDS011;21627;48.216;16.482;2023-04-30T07:58:25;11.73;;;6.93;;
35518;SDS011;21627;48.216;16.482;2023-04-30T08:00:52;16.10;;;7.53;;
35518;SDS011;21627;48.216;16.482;2023-04-30T08:03:19;20.45;;;7.00;;
35518;SDS011;21627;48.216;16.482;2023-04-30T08:05:47;15.05;;;7.68;;
35518;SDS011;21627;48.216;16.482;2023-04-30T08:08:14;11.55;;;7.05;;
35518;SDS011;21627;48.216;16.482;2023-04-30T08:10:41;13.98;;;7.95;;
35518;SDS011;21627;48.216;16.482;2023-04-30T08:13:09;14.75;;;7.45;;
35518;SDS011;21627;48.216;16.482;2023-04-30T08:15:36;9.95;;;6.55;;
35518;SDS011;21627;48.216;16.482;2023-04-30T08:18:05;12.95;;;6.15;;
35518;SDS011;21627;48.216;16.482;2023-04-30T08:20:32;12.55;;;7.30;;
35518;SDS011;21627;48.216;16.482;2023-04-30T08:23:01;10.60;;;6.50;;
35518;SDS011;21627;48.216;16.482;2023-04-30T08:25:28;13.35;;;6.38;;
35518;SDS011;21627;48.216;16.482;2023-04-30T08:27:57;10.52;;;6.45;;
35518;SDS011;21627;48.216;16.482;2023-04-30T08:30:25;8.80;;;6.55;;
35518;SDS011;21627;48.216;16.482;2023-04-30T08:32:52;15.05;;;6.85;;
35518;SDS011;21627;48.216;16.482;2023-04-30T08:35:22;11.02;;;6.78;;
35518;SDS011;21627;48.216;16.482;2023-04-30T08:37:50;11.70;;;6.82;;
35518;SDS011;21627;48.216;16.482;2023-04-30T08:40:18;15.07;;;6.82;;
35518;SDS011;21627;48.216;16.482;2023-04-30T08:43:10;12.05;;;7.05;;
35518;SDS011;21627;48.216;16.482;2023-04-30T08:45:37;11.43;;;7.10;;
35518;SDS011;21627;48.216;16.482;2023-04-30T08:48:04;11.10;;;6.30;;
35518;SDS011;21627;48.216;16.482;2023-04-30T08:50:41;11.30;;;6.57;;
35518;SDS011;21627;48.216;16.482;2023-04-30T08:53:09;9.30;;;6.55;;
35518;SDS011;21627;48.216;16.482;2023-04-30T08:55:38;10.73;;;6.47;;
35518;SDS011;21627;48.216;16.482;2023-04-30T08:58:07;14.40;;;7.13;;
35518;SDS011;21627;48.216;16.482;2023-04-30T09:00:36;7.57;;;6.20;;
35518;SDS011;21627;48.216;16.482;2023-04-30T09:03:05;12.48;;;7.85;;
35518;SDS011;21627;48.216;16.482;2023-04-30T09:05:33;10.68;;;6.70;;
35518;SDS011;21627;48.216;16.482;2023-04-30T09:08:03;16.05;;;7.22;;
35518;SDS011;21627;48.216;16.482;2023-04-30T09:10:36;12.73;;;7.05;;
35518;SDS011;21627;48.216;16.482;2023-04-30T09:13:05;10.45;;;6.47;;
35518;SDS011;21627;48.216;16.482;2023-04-30T09:15:35;10.45;;;6.00;;
35518;SDS011;21627;48.216;16.482;2023-04-30T09:23:24;10.93;;;6.40;;
35518;SDS011;21627;48.216;16.482;2023-04-30T09:25:51;10.73;;;6.05;;
35518;SDS011;21627;48.216;16.482;2023-04-30T09:28:19;8.68;;;5.75;;
35518;SDS011;21627;48.216;16.482;2023-04-30T09:30:51;12.70;;;6.30;;
35518;SDS011;21627;48.216;16.482;2023-04-30T09:33:21;12.57;;;5.97;;
35518;SDS011;21627;48.216;16.482;2023-04-30T09:35:48;14.23;;;6.43;;
35518;SDS011;21627;48.216;16.482;2023-04-30T09:38:25;8.90;;;6.13;;
35518;SDS011;21627;48.216;16.482;2023-04-30T09:40:58;6.95;;;5.57;;
35518;SDS011;21627;48.216;16.482;2023-04-30T09:43:27;8.90;;;5.30;;
35518;SDS011;21627;48.216;16.482;2023-04-30T09:45:56;11.00;;;6.07;;
35518;SDS011;21627;48.216;16.482;2023-04-30T09:48:25;9.18;;;6.10;;
35518;SDS011;21627;48.216;16.482;2023-04-30T09:50:56;9.52;;;6.03;;
35518;SDS011;21627;48.216;16.482;2023-04-30T09:53:24;7.22;;;5.35;;
35518;SDS011;21627;48.216;16.482;2023-04-30T09:55:52;8.75;;;5.45;;
35518;SDS011;21627;48.216;16.482;2023-04-30T09:58:23;10.25;;;5.80;;
35518;SDS011;21627;48.216;16.482;2023-04-30T10:00:54;7.70;;;5.43;;
35518;SDS011;21627;48.216;16.482;2023-04-30T10:03:25;13.25;;;6.00;;
35518;SDS011;21627;48.216;16.482;2023-04-30T10:05:52;7.90;;;5.03;;
35518;SDS011;21627;48.216;16.482;2023-04-30T10:08:24;12.32;;;4.82;;
35518;SDS011;21627;48.216;16.482;2023-04-30T10:11:09;7.57;;;5.45;;
35518;SDS011;21627;48.216;16.482;2023-04-30T10:13:43;8.95;;;5.20;;
35518;SDS011;21627;48.216;16.482;2023-04-30T10:16:16;9.32;;;5.43;;
35518;SDS011;21627;48.216;16.482;2023-04-30T10:19:25;8.45;;;4.68;;
35518;SDS011;21627;48.216;16.482;2023-04-30T10:22:01;7.80;;;4.95;;
35518;SDS011;21627;48.216;16.482;2023-04-30T10:24:29;7.15;;;4.60;;
35518;SDS011;21627;48.216;16.482;2023-04-30T10:26:56;8.93;;;4.93;;
35518;SDS011;21627;48.216;16.482;2023-04-30T10:29:23;7.35;;;4.88;;
35518;SDS011;21627;48.216;16.482;2023-04-30T10:31:51;7.53;;;4.90;;
35518;SDS011;21627;48.216;16.482;2023-04-30T10:36:59;9.98;;;5.45;;
35518;SDS011;21627;48.216;16.482;2023-04-30T10:39:37;6.38;;;4.70;;
35518;SDS011;21627;48.216;16.482;2023-04-30T10:42:05;9.45;;;4.88;;
35518;SDS011;21627;48.216;16.482;2023-04-30T10:44:35;13.45;;;5.38;;
35518;SDS011;21627;48.216;16.482;2023-04-30T10:47:04;7.47;;;4.63;;
35518;SDS011;21627;48.216;16.482;2023-04-30T10:49:32;8.18;;;5.25;;
35518;SDS011;21627;48.216;16.482;2023-04-30T10:52:01;8.02;;;4.55;;
35518;SDS011;21627;48.216;16.482;2023-04-30T10:54:31;7.32;;;4.65;;
35518;SDS011;21627;48.216;16.482;2023-04-30T10:57:09;8.55;;;5.07;;
35518;SDS011;21627;48.216;16.482;2023-04-30T10:59:40;6.63;;;5.00;;
35518;SDS011;21627;48.216;16.482;2023-04-30T11:02:14;8.10;;;5.03;;
35518;SDS011;21627;48.216;16.482;2023-04-30T11:07:56;11.65;;;5.03;;
35518;SDS011;21627;48.216;16.482;2023-04-30T11:10:24;6.35;;;4.93;;
35518;SDS011;21627;48.216;16.482;2023-04-30T11:12:57;7.88;;;5.05;;
35518;SDS011;21627;48.216;16.482;2023-04-30T11:15:38;7.97;;;5.30;;
35518;SDS011;21627;48.216;16.482;2023-04-30T11:18:07;9.15;;;4.70;;
35518;SDS011;21627;48.216;16.482;2023-04-30T11:20:38;9.52;;;4.85;;
35518;SDS011;21627;48.216;16.482;2023-04-30T11:25:59;13.57;;;5.18;;
35518;SDS011;21627;48.216;16.482;2023-04-30T11:28:27;10.23;;;5.97;;
35518;SDS011;21627;48.216;16.482;2023-04-30T11:30:57;10.05;;;5.55;;
35518;SDS011;21627;48.216;16.482;2023-04-30T11:33:26;9.15;;;5.75;;
35518;SDS011;21627;48.216;16.482;2023-04-30T11:35:55;7.32;;;4.85;;
35518;SDS011;21627;48.216;16.482;2023-04-30T11:38:25;16.00;;;5.78;;
35518;SDS011;21627;48.216;16.482;2023-04-30T11:40:53;8.55;;;5.30;;
35518;SDS011;21627;48.216;16.482;2023-04-30T11:43:30;9.45;;;5.82;;
35518;SDS011;21627;48.216;16.482;2023-04-30T11:46:06;10.98;;;5.68;;
35518;SDS011;21627;48.216;16.482;2023-04-30T11:48:38;8.68;;;5.38;;
35518;SDS011;21627;48.216;16.482;2023-04-30T11:51:19;8.73;;;6.00;;
35518;SDS011;21627;48.216;16.482;2023-04-30T11:53:50;14.30;;;7.40;;
35518;SDS011;21627;48.216;16.482;2023-04-30T11:56:19;11.00;;;7.57;;
35518;SDS011;21627;48.216;16.482;2023-04-30T11:58:48;12.07;;;7.80;;
35518;SDS011;21627;48.216;16.482;2023-04-30T12:01:17;11.68;;;6.95;;
35518;SDS011;21627;48.216;16.482;2023-04-30T12:03:46;10.65;;;7.60;;
35518;SDS011;21627;48.216;16.482;2023-04-30T12:06:22;10.23;;;7.65;;
35518;SDS011;21627;48.216;16.482;2023-04-30T12:08:54;11.60;;;6.88;;
35518;SDS011;21627;48.216;16.482;2023-04-30T12:11:24;13.00;;;7.10;;
35518;SDS011;21627;48.216;16.482;2023-04-30T12:14:05;6.90;;;5.88;;
35518;SDS011;21627;48.216;16.482;2023-04-30T12:16:50;9.05;;;5.32;;
35518;SDS011;21627;48.216;16.482;2023-04-30T12:19:19;7.90;;;4.10;;
35518;SDS011;21627;48.216;16.482;2023-04-30T12:21:50;4.53;;;4.00;;
35518;SDS011;21627;48.216;16.482;2023-04-30T12:24:20;7.57;;;4.07;;
35518;SDS011;21627;48.216;16.482;2023-04-30T12:26:49;6.60;;;4.43;;
35518;SDS011;21627;48.216;16.482;2023-04-30T12:29:20;10.57;;;4.65;;
35518;SDS011;21627;48.216;16.482;2023-04-30T12:31:50;10.15;;;4.45;;
35518;SDS011;21627;48.216;16.482;2023-04-30T12:34:17;8.68;;;3.75;;
35518;SDS011;21627;48.216;16.482;2023-04-30T12:36:45;6.05;;;4.45;;
35518;SDS011;21627;48.216;16.482;2023-04-30T12:39:13;6.43;;;4.25;;
35518;SDS011;21627;48.216;16.482;2023-04-30T12:41:48;6.18;;;5.03;;
35518;SDS011;21627;48.216;16.482;2023-04-30T12:44:16;11.43;;;5.18;;
35518;SDS011;21627;48.216;16.482;2023-04-30T12:46:45;7.10;;;5.72;;
35518;SDS011;21627;48.216;16.482;2023-04-30T12:49:26;7.05;;;5.00;;
35518;SDS011;21627;48.216;16.482;2023-04-30T12:52:05;7.85;;;5.25;;
35518;SDS011;21627;48.216;16.482;2023-04-30T12:54:37;7.90;;;4.78;;
35518;SDS011;21627;48.216;16.482;2023-04-30T12:57:05;11.30;;;4.90;;
35518;SDS011;21627;48.216;16.482;2023-04-30T12:59:38;6.28;;;4.88;;
35518;SDS011;21627;48.216;16.482;2023-04-30T13:02:17;14.32;;;5.53;;
35518;SDS011;21627;48.216;16.482;2023-04-30T13:04:44;9.73;;;6.25;;
35518;SDS011;21627;48.216;16.482;2023-04-30T13:07:11;14.13;;;5.78;;
35518;SDS011;21627;48.216;16.482;2023-04-30T13:09:39;8.10;;;5.50;;
35518;SDS011;21627;48.216;16.482;2023-04-30T13:12:06;9.52;;;5.15;;
35518;SDS011;21627;48.216;16.482;2023-04-30T13:14:33;6.45;;;4.65;;
35518;SDS011;21627;48.216;16.482;2023-04-30T13:17:01;6.10;;;4.97;;
35518;SDS011;21627;48.216;16.482;2023-04-30T13:19:32;8.27;;;5.68;;
35518;SDS011;21627;48.216;16.482;2023-04-30T13:22:00;12.20;;;5.32;;
35518;SDS011;21627;48.216;16.482;2023-04-30T13:24:27;6.85;;;4.55;;
35518;SDS011;21627;48.216;16.482;2023-04-30T13:26:54;6.32;;;4.10;;
35518;SDS011;21627;48.216;16.482;2023-04-30T13:29:23;11.48;;;4.97;;
35518;SDS011;21627;48.216;16.482;2023-04-30T13:31:50;7.75;;;5.22;;
35518;SDS011;21627;48.216;16.482;2023-04-30T13:34:18;8.52;;;4.95;;
35518;SDS011;21627;48.216;16.482;2023-04-30T13:36:45;7.05;;;4.63;;
35518;SDS011;21627;48.216;16.482;2023-04-30T13:39:12;5.25;;;4.72;;
35518;SDS011;21627;48.216;16.482;2023-04-30T13:41:39;6.18;;;4.53;;
35518;SDS011;21627;48.216;16.482;2023-04-30T13:44:06;22.15;;;4.45;;
35518;SDS011;21627;48.216;16.482;2023-04-30T13:46:33;7.30;;;4.40;;
35518;SDS011;21627;48.216;16.482;2023-04-30T13:49:01;6.90;;;4.53;;
35518;SDS011;21627;48.216;16.482;2023-04-30T13:51:31;7.88;;;4.70;;
35518;SDS011;21627;48.216;16.482;2023-04-30T13:53:58;7.40;;;5.07;;
35518;SDS011;21627;48.216;16.482;2023-04-30T13:56:28;9.38;;;4.45;;
35518;SDS011;21627;48.216;16.482;2023-04-30T13:58:55;6.60;;;3.83;;
35518;SDS011;21627;48.216;16.482;2023-04-30T14:01:22;9.65;;;4.30;;
35518;SDS011;21627;48.216;16.482;2023-04-30T14:03:49;7.95;;;4.57;;
35518;SDS011;21627;48.216;16.482;2023-04-30T14:06:17;5.90;;;4.38;;
35518;SDS011;21627;48.216;16.482;2023-04-30T14:08:44;6.82;;;4.43;;
35518;SDS011;21627;48.216;16.482;2023-04-30T14:11:11;6.88;;;4.30;;
35518;SDS011;21627;48.216;16.482;2023-04-30T14:13:38;8.27;;;5.22;;
35518;SDS011;21627;48.216;16.482;2023-04-30T14:16:06;8.10;;;4.53;;
35518;SDS011;21627;48.216;16.482;2023-04-30T14:18:34;9.02;;;5.03;;
35518;SDS011;21627;48.216;16.482;2023-04-30T14:21:01;8.95;;;5.15;;
35518;SDS011;21627;48.216;16.482;2023-04-30T14:23:28;9.70;;;5.45;;
35518;SDS011;21627;48.216;16.482;2023-04-30T14:25:55;9.13;;;5.50;;
35518;SDS011;21627;48.216;16.482;2023-04-30T14:28:23;9.15;;;5.22;;
35518;SDS011;21627;48.216;16.482;2023-04-30T14:30:50;8.63;;;4.93;;
35518;SDS011;21627;48.216;16.482;2023-04-30T14:33:17;13.60;;;5.10;;
35518;SDS011;21627;48.216;16.482;2023-04-30T14:35:46;7.65;;;4.00;;
35518;SDS011;21627;48.216;16.482;2023-04-30T14:38:14;7.35;;;3.65;;
35518;SDS011;21627;48.216;16.482;2023-04-30T14:40:42;5.47;;;3.97;;
35518;SDS011;21627;48.216;16.482;2023-04-30T14:43:10;7.47;;;4.30;;
35518;SDS011;21627;48.216;16.482;2023-04-30T14:45:37;6.28;;;4.32;;
35518;SDS011;21627;48.216;16.482;2023-04-30T14:48:05;6.55;;;3.47;;
35518;SDS011;21627;48.216;16.482;2023-04-30T14:50:33;7.35;;;4.03;;
35518;SDS011;21627;48.216;16.482;2023-04-30T14:53:00;6.18;;;4.25;;
35518;SDS011;21627;48.216;16.482;2023-04-30T14:55:29;7.20;;;4.63;;
35518;SDS011;21627;48.216;16.482;2023-04-30T14:57:58;5.50;;;4.25;;
35518;SDS011;21627;48.216;16.482;2023-04-30T15:00:25;11.07;;;4.18;;